createdAt,value
2022-09-27T00:00:04.757Z,0
2022-09-27T00:05:03.910Z,0
2022-09-27T00:10:03.329Z,0
2022-09-27T00:15:01.610Z,0
2022-09-27T00:20:00.798Z,0
2022-09-27T00:25:00.872Z,0
2022-09-27T00:30:00.147Z,0
2022-09-27T00:34:59.662Z,0
2022-09-27T00:39:58.778Z,0
2022-09-27T00:44:58.799Z,0
2022-09-27T00:49:57.874Z,0
2022-09-27T00:54:58.872Z,0
2022-09-27T00:59:28.303Z,0
2022-09-27T01:04:28.179Z,0
2022-09-27T01:09:29.650Z,0
2022-09-27T01:14:26.593Z,0
2022-09-27T01:19:26.029Z,0
2022-09-27T01:24:26.859Z,0
2022-09-27T01:29:24.027Z,0
2022-09-27T01:34:24.236Z,0
2022-09-27T01:39:23.914Z,0
2022-09-27T01:44:11.150Z,0
2022-09-27T01:49:11.210Z,0
2022-09-27T01:54:10.925Z,0
2022-09-27T01:58:57.663Z,0
2022-09-27T02:03:57.194Z,0
2022-09-27T02:08:56.541Z,0
2022-09-27T02:13:56.925Z,0
2022-09-27T02:18:55.598Z,0
2022-09-27T02:23:56.706Z,0
2022-09-27T02:28:53.908Z,0
2022-09-27T02:33:54.441Z,0
2022-09-27T02:38:53.731Z,0
2022-09-27T02:43:52.887Z,0
2022-09-27T02:48:52.715Z,0
2022-09-27T02:53:52.066Z,0
2022-09-27T02:58:51.570Z,0
2022-09-27T03:03:51.983Z,0
2022-09-27T03:08:49.595Z,0
2022-09-27T03:14:11.547Z,0
2022-09-27T03:18:47.955Z,0
2022-09-27T03:23:47.685Z,0
2022-09-27T03:28:46.849Z,0
2022-09-27T03:33:46.732Z,0
2022-09-27T03:38:46.625Z,0
2022-09-27T03:43:45.339Z,0
2022-09-27T03:48:44.253Z,0
2022-09-27T03:53:44.079Z,0
2022-09-27T03:58:43.708Z,0
2022-09-27T04:03:43.302Z,0
2022-09-27T04:08:44.102Z,0
2022-09-27T04:13:41.577Z,0
2022-09-27T04:18:40.607Z,0
2022-09-27T04:23:39.726Z,0
2022-09-27T04:28:39.451Z,0
2022-09-27T04:33:38.598Z,0
2022-09-27T04:38:38.629Z,0
2022-09-27T04:43:37.342Z,0
2022-09-27T04:48:38.343Z,0
2022-09-27T04:53:35.294Z,0
2022-09-27T04:58:35.794Z,0
2022-09-27T04:59:56.621Z,0
2022-09-27T05:04:56.151Z,0
2022-09-27T05:09:54.549Z,0
2022-09-27T05:14:54.365Z,0
2022-09-27T05:19:53.686Z,0
2022-09-27T05:24:53.828Z,0
2022-09-27T05:29:52.479Z,0
2022-09-27T05:34:52.076Z,0
2022-09-27T05:39:51.913Z,0
2022-09-27T05:44:51.374Z,0
2022-09-27T05:49:52.293Z,0
2022-09-27T05:54:48.675Z,0
2022-09-27T05:59:27.353Z,0
2022-09-27T06:04:28.487Z,0.01
2022-09-27T06:09:24.975Z,0.01
2022-09-27T06:14:25.483Z,0.01
2022-09-27T06:19:25.349Z,0.01
2022-09-27T06:24:23.425Z,0
2022-09-27T06:29:23.841Z,0.01
2022-09-27T06:34:23.792Z,0.02
2022-09-27T06:39:23.450Z,0.01
2022-09-27T06:44:23.620Z,0.03
2022-09-27T06:49:22.995Z,0.03
2022-09-27T06:54:24.918Z,0.02
2022-09-27T06:58:56.782Z,0.03
2022-09-27T07:03:57.339Z,0.02
2022-09-27T07:08:56.462Z,0.04
2022-09-27T07:13:58.164Z,0.05
2022-09-27T07:18:55.475Z,0.06
2022-09-27T07:23:54.567Z,0.06
2022-09-27T07:28:54.309Z,0.06
2022-09-27T07:33:54.262Z,0.07
2022-09-27T08:08:49.937Z,0.06
2022-09-27T08:13:49.010Z,0.04
2022-09-27T08:18:47.690Z,0.08
2022-09-27T08:23:47.433Z,0.12
2022-09-27T08:28:47.508Z,0.11
2022-09-27T08:33:46.402Z,0.16
2022-09-27T08:38:46.724Z,0.2
2022-09-27T08:43:45.346Z,0.14
2022-09-27T08:48:45.956Z,0.24
2022-09-27T08:53:44.712Z,0.15
2022-09-27T08:58:45.736Z,0.16
2022-09-27T09:03:43.027Z,0.26
2022-09-27T09:08:53.010Z,0.2
2022-09-27T09:13:42.360Z,0.11
2022-09-27T09:18:41.793Z,0.11
2022-09-27T09:23:40.999Z,0.15
2022-09-27T09:28:41.158Z,0.23
2022-09-27T09:33:39.673Z,0.19
2022-09-27T09:38:40.887Z,0.16
2022-09-27T09:43:37.842Z,0.06
2022-09-27T09:48:38.890Z,0.09
2022-09-27T09:53:36.710Z,0.07
2022-09-27T09:58:28.165Z,0.08
2022-09-27T10:03:26.787Z,0.07
2022-09-27T10:08:26.648Z,0.09
2022-09-27T10:13:26.679Z,0.16
2022-09-27T10:18:25.452Z,0.24
2022-09-27T10:23:25.164Z,0.22
2022-09-27T10:28:24.537Z,0.14
2022-09-27T10:33:24.451Z,0.09
2022-09-27T10:38:23.719Z,0.07
2022-09-27T10:43:31.927Z,0.04
2022-09-27T10:48:20.990Z,0.03
2022-09-27T10:53:21.080Z,0.03
2022-09-27T10:58:20.073Z,0.06
2022-09-27T10:59:41.810Z,0.06
2022-09-27T11:04:41.896Z,0.06
2022-09-27T11:09:41.300Z,0.08
2022-09-27T11:14:40.394Z,0.08
2022-09-27T11:19:41.156Z,0.07
2022-09-27T11:24:38.563Z,0.05
2022-09-27T11:29:38.091Z,0.07
2022-09-27T11:34:37.275Z,0.06
2022-09-27T11:39:36.876Z,0.09
2022-09-27T11:44:35.491Z,0.05
2022-09-27T11:49:35.515Z,0.17
2022-09-27T11:54:35.475Z,0.65
2022-09-27T11:58:54.401Z,0.45
2022-09-27T12:03:54.273Z,0.43
2022-09-27T12:08:53.956Z,0.52
2022-09-27T12:13:53.949Z,0.31
2022-09-27T12:18:54.438Z,0.2
2022-09-27T12:23:51.339Z,0.34
2022-09-27T12:28:50.429Z,0.58
2022-09-27T12:33:50.622Z,0.39
2022-09-27T12:38:50.075Z,0.42
2022-09-27T12:43:52.236Z,0.25
2022-09-27T12:48:49.520Z,0.22
2022-09-27T12:53:49.346Z,0.23
2022-09-27T12:58:48.686Z,0.18
2022-09-27T13:03:49.270Z,0.13
2022-09-27T13:08:53.267Z,0.19
2022-09-27T13:13:46.151Z,0.19
2022-09-27T13:18:45.513Z,0.18
2022-09-27T13:23:44.810Z,0.15
2022-09-27T13:28:43.296Z,0.13
2022-09-27T13:33:42.819Z,0.11
2022-09-27T13:38:42.706Z,0.14
2022-09-27T13:43:42.175Z,0.13
2022-09-27T13:48:41.150Z,0.08
2022-09-27T13:53:40.878Z,0.04
2022-09-27T13:58:40.552Z,0.03
2022-09-27T14:00:01.944Z,0.03
2022-09-27T14:05:00.032Z,0.04
2022-09-27T14:09:59.655Z,0.07
2022-09-27T14:14:59.861Z,0.06
2022-09-27T14:19:58.517Z,0.05
2022-09-27T14:24:57.877Z,0.24
2022-09-27T14:29:57.706Z,0.26
2022-09-27T14:34:57.856Z,0.23
2022-09-27T14:39:57.453Z,0.12
2022-09-27T14:44:58.623Z,0.16
2022-09-27T14:49:56.101Z,0.11
2022-09-27T14:54:55.985Z,0.11
2022-09-27T14:58:58.982Z,0.19
2022-09-27T15:03:59.013Z,0.18
2022-09-27T15:08:56.837Z,0.16
2022-09-27T15:13:56.910Z,0.09
2022-09-27T15:18:56.438Z,0.07
2022-09-27T15:23:55.725Z,0.05
2022-09-27T15:28:54.896Z,0.03
2022-09-27T15:33:54.848Z,0.04
2022-09-27T15:43:53.918Z,0.05
2022-09-27T15:48:51.324Z,0.06
2022-09-27T15:53:51.374Z,0.05
2022-09-27T15:58:51.032Z,0.04
2022-09-27T16:03:50.422Z,0.03
2022-09-27T16:08:49.081Z,0.02
2022-09-27T16:13:48.836Z,0.02
2022-09-27T16:18:48.342Z,0.02
2022-09-27T16:23:48.136Z,0.02
2022-09-27T16:28:48.869Z,0.01
2022-09-27T16:33:45.925Z,0.01
2022-09-27T16:38:45.893Z,0
2022-09-27T16:43:44.575Z,0
2022-09-27T16:48:44.349Z,0
2022-09-27T16:53:42.508Z,0
2022-09-27T16:58:42.209Z,0
2022-09-27T17:03:41.840Z,0
2022-09-27T17:08:41.829Z,0
2022-09-27T17:13:40.606Z,0
2022-09-27T17:18:41.151Z,0
2022-09-27T17:23:39.648Z,0
2022-09-27T17:28:39.578Z,0
2022-09-27T17:33:37.404Z,0
2022-09-27T17:38:37.459Z,0
2022-09-27T17:43:37.280Z,0
2022-09-27T17:48:36.412Z,0
2022-09-27T17:53:38.999Z,0
2022-09-27T17:58:35.280Z,0
2022-09-27T17:59:57.286Z,0
2022-09-27T18:04:56.387Z,0
2022-09-27T18:09:56.472Z,0
2022-09-27T18:14:54.023Z,0
2022-09-27T18:19:53.472Z,0
2022-09-27T18:24:53.873Z,0
2022-09-27T18:29:53.133Z,0
2022-09-27T18:34:51.190Z,0
2022-09-27T18:39:50.742Z,0
2022-09-27T18:44:51.016Z,0
2022-09-27T18:49:49.909Z,0
2022-09-27T18:54:47.890Z,0
2022-09-27T18:59:27.009Z,0
2022-09-27T19:05:08.858Z,0
2022-09-27T19:09:27.490Z,0
2022-09-27T19:14:26.115Z,0
2022-09-27T19:19:24.411Z,0
2022-09-27T19:24:24.867Z,0
2022-09-27T19:29:24.375Z,0
2022-09-27T19:34:24.239Z,0
2022-09-27T19:39:23.887Z,0
2022-09-27T19:44:23.804Z,0
2022-09-27T19:49:24.829Z,0
2022-09-27T19:54:11.386Z,0
2022-09-27T19:58:57.440Z,0
2022-09-27T20:03:56.965Z,0
2022-09-27T20:08:57.436Z,0
2022-09-27T20:13:55.673Z,0
2022-09-27T20:18:54.969Z,0
2022-09-27T20:23:53.986Z,0
2022-09-27T20:28:55.304Z,0
2022-09-27T20:33:51.638Z,0
2022-09-27T20:38:51.624Z,0
2022-09-27T20:43:50.941Z,0
2022-09-27T20:48:51.350Z,0
2022-09-27T20:53:48.391Z,0
2022-09-27T20:58:48.721Z,0
2022-09-27T21:03:47.311Z,0
2022-09-27T21:08:47.618Z,0
2022-09-27T21:13:45.528Z,0
2022-09-27T21:18:46.069Z,0
2022-09-27T21:23:48.390Z,0
2022-09-27T21:28:45.379Z,0
2022-09-27T21:33:43.830Z,0
2022-09-27T21:38:44.430Z,0
2022-09-27T21:43:43.960Z,0
2022-09-27T21:48:42.675Z,0
2022-09-27T21:53:43.339Z,0
2022-09-27T21:58:40.105Z,0
2022-09-27T22:03:40.614Z,0
2022-09-27T22:08:39.112Z,0
2022-09-27T22:13:38.779Z,0
2022-09-27T22:18:38.181Z,0
2022-09-27T22:23:38.374Z,0
2022-09-27T22:28:37.031Z,0
2022-09-27T22:33:38.061Z,0
2022-09-27T22:38:35.363Z,0
2022-09-27T22:43:35.251Z,0
2022-09-27T22:48:35.173Z,0
2022-09-27T22:53:35.327Z,0
2022-09-27T22:58:33.476Z,0
2022-09-27T22:59:54.523Z,0
2022-09-27T23:04:54.572Z,0
2022-09-27T23:09:53.388Z,0
2022-09-27T23:14:52.777Z,0
2022-09-27T23:19:52.309Z,0
2022-09-27T23:24:51.934Z,0
2022-09-27T23:29:50.629Z,0
2022-09-27T23:34:52.121Z,0
2022-09-27T23:39:48.998Z,0
2022-09-27T23:44:49.372Z,0
2022-09-27T23:49:48.737Z,0
2022-09-27T23:54:48.354Z,0
2022-09-27T23:59:25.155Z,0
